15°C Temp
6°C Dewpoint
% Humidity
Temperature
13 KM/H
8 MPH
7 KTS
100°
Due East

Wind Speed
Parcialmente Nublado
Pressure 1016.92 (hPa) - 30.03 (in)
Visibility 6.2 (mi) - 10.0 (km)

Current Conditions
LEAL
Location 70(km)
Metar :LEAL 281530Z 10007KT 070V140 9999 FEW028 SCT050 15/06 Q1017 NOSIG
Sat 28th March 16:30 pm

Airport
  Metar Aviation API Data Provided by https://www.checkwx.com/ PHP scripts by weather34.com ©2020